createdAt,value
2023-03-02T00:01:45.677Z,5.95
2023-03-02T00:04:48.609Z,5.38
2023-03-02T00:07:50.404Z,6.22
2023-03-02T00:10:54.583Z,6.79
2023-03-02T00:13:56.502Z,7.05
2023-03-02T00:16:58.320Z,7.39
2023-03-02T00:20:11.748Z,7.26
2023-03-02T00:23:13.772Z,5.76
2023-03-02T00:26:15.702Z,5.67
2023-03-02T00:29:17.504Z,6.42
2023-03-02T00:32:19.374Z,6.40
2023-03-02T00:35:21.314Z,5.81
2023-03-02T00:38:23.220Z,5.65
2023-03-02T00:41:25.183Z,5.97
2023-03-02T00:44:27.065Z,6.73
2023-03-02T00:47:29.746Z,5.75
2023-03-02T00:50:31.630Z,6.62
2023-03-02T00:53:33.627Z,5.86
2023-03-02T00:56:35.535Z,5.13
2023-03-02T00:59:40.407Z,4.95
2023-03-02T01:02:44.209Z,5.56
2023-03-02T01:05:46.317Z,6.30
2023-03-02T01:08:48.155Z,6.03
2023-03-02T01:11:49.999Z,6.16
2023-03-02T01:14:51.934Z,6.20
2023-03-02T01:17:53.880Z,6.58
2023-03-02T01:21:05.890Z,4.98
2023-03-02T01:24:07.863Z,5.88
2023-03-02T01:27:09.770Z,4.46
2023-03-02T01:30:11.947Z,4.93
2023-03-02T01:33:14.268Z,4.59
2023-03-02T01:36:16.465Z,4.46
2023-03-02T01:39:18.458Z,4.75
2023-03-02T01:42:20.329Z,4.46
2023-03-02T01:45:41.076Z,4.86
2023-03-02T01:48:42.924Z,3.92
2023-03-02T01:51:46.532Z,3.92
2023-03-02T01:54:49.909Z,4.67
2023-03-02T01:57:52.265Z,4.60
2023-03-02T02:00:54.467Z,4.50
2023-03-02T02:03:56.445Z,4.05
2023-03-02T02:07:02.576Z,3.84
2023-03-02T02:10:05.342Z,3.67
2023-03-02T02:13:11.000Z,4.00
2023-03-02T02:16:13.012Z,4.16
2023-03-02T02:19:14.948Z,4.11
2023-03-02T02:22:17.770Z,3.84
2023-03-02T02:25:22.704Z,3.71
2023-03-02T02:28:44.960Z,4.26
2023-03-02T02:31:47.665Z,3.75
2023-03-02T02:34:52.781Z,3.63
2023-03-02T02:37:55.741Z,3.47
2023-03-02T02:40:58.780Z,3.83
2023-03-02T02:44:00.645Z,4.26
2023-03-02T02:47:02.503Z,4.15
2023-03-02T02:50:04.548Z,4.22
2023-03-02T02:53:22.711Z,3.78
2023-03-02T02:56:28.958Z,4.11
2023-03-02T02:59:38.085Z,4.15
2023-03-02T03:02:40.941Z,4.60
2023-03-02T03:05:42.766Z,3.92
2023-03-02T03:08:44.697Z,3.79
2023-03-02T03:11:47.019Z,4.00
2023-03-02T03:14:48.940Z,3.67
2023-03-02T03:17:55.094Z,4.01
2023-03-02T03:20:56.908Z,4.03
2023-03-02T03:23:59.047Z,3.65
2023-03-02T03:27:01.438Z,3.29
2023-03-02T03:30:03.847Z,3.59
2023-03-02T03:33:05.701Z,3.58
2023-03-02T03:36:07.827Z,3.86
2023-03-02T03:39:10.039Z,3.51
2023-03-02T03:42:12.092Z,3.83
2023-03-02T03:45:13.960Z,4.88
2023-03-02T03:48:15.772Z,4.26
2023-03-02T03:51:17.846Z,4.77
2023-03-02T03:54:19.814Z,4.46
2023-03-02T03:57:21.620Z,3.97
2023-03-02T04:00:24.292Z,4.62
2023-03-02T04:03:26.253Z,3.68
2023-03-02T04:06:28.220Z,3.92
2023-03-02T04:09:32.294Z,4.14
2023-03-02T04:12:36.210Z,4.47
2023-03-02T04:15:38.486Z,4.58
2023-03-02T04:18:40.359Z,4.97
2023-03-02T04:21:45.094Z,4.99
2023-03-02T04:24:47.663Z,5.15
2023-03-02T04:27:50.098Z,5.27
2023-03-02T04:30:51.972Z,4.93
2023-03-02T04:33:53.893Z,4.09
2023-03-02T04:36:55.902Z,4.00
2023-03-02T04:39:57.807Z,3.92
2023-03-02T04:42:59.683Z,3.93
2023-03-02T04:46:01.634Z,3.78
2023-03-02T04:49:04.365Z,3.62
2023-03-02T04:52:06.443Z,3.86
2023-03-02T04:55:08.556Z,3.84
2023-03-02T04:58:10.642Z,3.65
2023-03-02T05:01:12.833Z,4.37
2023-03-02T05:04:15.174Z,4.04
2023-03-02T05:07:17.024Z,4.89
2023-03-02T05:10:19.543Z,5.22
2023-03-02T05:13:21.355Z,4.02
2023-03-02T05:16:23.496Z,4.33
2023-03-02T05:19:25.481Z,4.33
2023-03-02T05:22:27.325Z,4.68
2023-03-02T05:25:29.856Z,4.42
2023-03-02T05:28:31.723Z,4.26
2023-03-02T05:31:35.350Z,4.71
2023-03-02T05:34:37.303Z,4.30
2023-03-02T05:37:42.644Z,4.39
2023-03-02T05:40:44.692Z,4.34
2023-03-02T05:43:46.534Z,4.23
2023-03-02T05:46:49.595Z,4.87
2023-03-02T05:49:51.527Z,4.52
2023-03-02T05:52:53.408Z,5.80
2023-03-02T05:55:55.307Z,5.36
2023-03-02T05:58:57.224Z,5.76
2023-03-02T06:01:59.540Z,5.41
2023-03-02T06:05:01.489Z,4.93
2023-03-02T06:08:03.533Z,4.64
2023-03-02T06:11:05.389Z,5.27
2023-03-02T06:14:07.247Z,6.02
2023-03-02T06:17:09.065Z,7.76
2023-03-02T06:20:11.690Z,9.14
2023-03-02T06:23:13.935Z,9.10
2023-03-02T06:26:16.058Z,8.54
2023-03-02T06:29:17.895Z,8.93
2023-03-02T06:32:19.897Z,8.47
2023-03-02T06:35:24.021Z,8.45
2023-03-02T06:38:26.130Z,7.62
2023-03-02T06:41:28.136Z,8.55
2023-03-02T06:44:30.085Z,8.70
2023-03-02T06:47:33.402Z,9.64
2023-03-02T06:50:35.371Z,9.39
2023-03-02T06:53:37.350Z,10.57
2023-03-02T06:56:41.015Z,9.80
2023-03-02T06:59:43.076Z,9.58
2023-03-02T07:02:45.292Z,8.91
2023-03-02T07:05:49.025Z,11.68
2023-03-02T07:08:50.962Z,11.34
2023-03-02T07:11:52.788Z,10.04
2023-03-02T07:14:54.836Z,10.19
2023-03-02T07:17:56.761Z,11.35
2023-03-02T07:20:58.758Z,12.81
2023-03-02T07:24:00.903Z,12.66
2023-03-02T07:27:02.755Z,11.22
2023-03-02T07:30:05.378Z,12.28
2023-03-02T07:33:07.240Z,13.46
2023-03-02T07:36:09.147Z,12.66
2023-03-02T07:39:11.141Z,11.05
2023-03-02T07:42:13.180Z,12.28
2023-03-02T07:45:17.017Z,12.52
2023-03-02T07:48:20.001Z,13.70
2023-03-02T07:51:21.914Z,11.89
2023-03-02T07:54:26.548Z,13.65
2023-03-02T07:57:28.415Z,13.09
2023-03-02T08:00:30.274Z,11.62
2023-03-02T08:03:32.155Z,11.99
2023-03-02T08:06:34.073Z,10.51
2023-03-02T08:09:35.921Z,10.20
2023-03-02T08:12:38.061Z,9.41
2023-03-02T08:15:39.889Z,9.46
2023-03-02T08:18:41.962Z,10.46
2023-03-02T08:21:44.052Z,9.63
2023-03-02T08:24:45.940Z,10.16
2023-03-02T08:27:47.909Z,9.21
2023-03-02T08:30:56.826Z,10.24
2023-03-02T08:33:59.727Z,10.28
2023-03-02T08:37:01.864Z,10.16
2023-03-02T08:40:04.053Z,10.20
2023-03-02T08:43:08.074Z,8.99
2023-03-02T08:46:10.850Z,8.60
2023-03-02T08:49:12.943Z,8.36
2023-03-02T08:52:17.733Z,9.22
2023-03-02T08:55:19.827Z,10.47
2023-03-02T08:58:22.060Z,9.10
2023-03-02T09:01:25.666Z,8.94
2023-03-02T09:04:27.807Z,9.21
2023-03-02T09:07:30.974Z,9.78
2023-03-02T09:10:32.956Z,9.77
2023-03-02T09:13:34.941Z,9.57
2023-03-02T09:16:37.196Z,9.66
2023-03-02T09:19:44.257Z,9.75
2023-03-02T09:22:50.851Z,10.34
2023-03-02T09:25:52.984Z,10.78
2023-03-02T09:28:55.765Z,10.03
2023-03-02T09:31:57.774Z,10.56
2023-03-02T09:34:59.890Z,10.46
2023-03-02T09:38:02.076Z,10.58
2023-03-02T09:41:19.731Z,10.70
2023-03-02T09:44:43.446Z,10.91
2023-03-02T09:47:53.072Z,11.14
2023-03-02T09:51:11.656Z,11.37
2023-03-02T09:54:16.118Z,10.68
2023-03-02T09:57:22.526Z,9.91
2023-03-02T10:00:27.848Z,11.01
2023-03-02T10:03:41.589Z,11.27
2023-03-02T10:06:43.854Z,11.46
2023-03-02T10:09:45.951Z,10.68
2023-03-02T10:13:06.741Z,11.17
2023-03-02T10:16:12.793Z,11.44
2023-03-02T10:19:14.970Z,13.44
2023-03-02T10:22:27.604Z,15.99
2023-03-02T10:25:49.304Z,18.09
2023-03-02T10:28:55.154Z,19.65
2023-03-02T10:32:12.489Z,18.44
2023-03-02T10:35:19.449Z,22.49
2023-03-02T10:38:22.681Z,19.12
2023-03-02T10:41:33.068Z,18.71
2023-03-02T10:44:37.895Z,23.05
2023-03-02T10:47:40.232Z,23.31
2023-03-02T10:50:42.618Z,22.36
2023-03-02T10:53:44.692Z,22.50
2023-03-02T10:56:50.450Z,21.49
2023-03-02T10:59:52.534Z,22.90
2023-03-02T11:02:58.514Z,23.79
2023-03-02T11:06:10.879Z,20.91
2023-03-02T11:09:13.324Z,19.99
2023-03-02T11:12:15.772Z,21.63
2023-03-02T11:15:19.859Z,23.32
2023-03-02T11:18:28.276Z,19.88
2023-03-02T11:21:33.686Z,23.23
2023-03-02T11:24:37.239Z,20.22
2023-03-02T11:27:41.775Z,19.47
2023-03-02T11:30:45.985Z,17.46
2023-03-02T11:33:57.961Z,20.47
2023-03-02T11:37:04.041Z,19.53
2023-03-02T11:40:09.268Z,19.64
2023-03-02T11:43:11.252Z,17.84
2023-03-02T11:46:21.547Z,18.87
2023-03-02T11:49:25.596Z,17.35
2023-03-02T11:52:28.190Z,17.41
2023-03-02T11:55:34.098Z,19.14
2023-03-02T11:58:36.081Z,21.43
2023-03-02T12:01:40.506Z,21.23
2023-03-02T12:04:45.304Z,19.87
2023-03-02T12:07:56.408Z,21.49
2023-03-02T12:11:00.215Z,19.98
2023-03-02T12:14:07.732Z,20.33
2023-03-02T12:17:36.708Z,19.61
2023-03-02T12:20:41.558Z,18.84
2023-03-02T12:23:49.476Z,19.77
2023-03-02T12:27:00.505Z,18.35
2023-03-02T12:30:12.906Z,18.40
2023-03-02T12:33:20.288Z,18.26
2023-03-02T12:36:25.231Z,21.08
2023-03-02T12:39:51.349Z,20.88
2023-03-02T12:42:55.067Z,20.27
2023-03-02T12:46:06.665Z,20.71
2023-03-02T12:49:36.418Z,20.81
2023-03-02T12:52:38.510Z,19.74
2023-03-02T12:55:40.460Z,19.33
2023-03-02T12:58:49.162Z,19.66
2023-03-02T13:01:51.091Z,19.41
2023-03-02T13:04:54.305Z,18.83
2023-03-02T13:08:00.695Z,20.78
2023-03-02T13:11:02.631Z,20.95
2023-03-02T13:14:18.141Z,24.97
2023-03-02T13:17:29.677Z,25.68
2023-03-02T13:20:31.749Z,23.85
2023-03-02T13:23:34.045Z,24.10
2023-03-02T13:26:36.570Z,24.71
2023-03-02T13:29:38.474Z,24.59
2023-03-02T13:32:41.206Z,27.17
2023-03-02T13:35:44.893Z,21.95
2023-03-02T13:38:48.633Z,27.51
2023-03-02T13:41:59.893Z,26.62
2023-03-02T13:45:31.593Z,27.72
2023-03-02T13:48:33.898Z,28.44
2023-03-02T13:51:37.151Z,28.32
2023-03-02T13:54:40.840Z,26.97
2023-03-02T13:57:42.982Z,25.53
2023-03-02T14:00:44.956Z,28.93
2023-03-02T14:03:46.913Z,29.09
2023-03-02T14:06:49.586Z,27.05
2023-03-02T14:09:51.507Z,28.19
2023-03-02T14:13:02.058Z,26.61
2023-03-02T14:16:06.970Z,24.29
2023-03-02T14:19:10.153Z,22.02
2023-03-02T14:22:14.916Z,20.19
2023-03-02T14:25:17.027Z,17.80
2023-03-02T14:28:21.691Z,19.13
2023-03-02T14:31:24.732Z,18.20
2023-03-02T14:34:26.848Z,17.85
2023-03-02T14:37:29.185Z,15.43
2023-03-02T14:40:31.419Z,16.63
2023-03-02T14:43:33.542Z,17.11
2023-03-02T14:46:35.756Z,17.33
2023-03-02T14:49:38.186Z,16.53
2023-03-02T14:52:56.700Z,16.46
2023-03-02T14:55:58.742Z,15.62
2023-03-02T14:59:00.639Z,15.28
2023-03-02T15:02:12.824Z,15.95
2023-03-02T15:05:21.195Z,15.12
2023-03-02T15:08:23.458Z,15.94
2023-03-02T15:11:25.653Z,14.78
2023-03-02T15:14:27.588Z,15.07
2023-03-02T15:17:29.583Z,13.91
2023-03-02T15:20:31.480Z,14.81
2023-03-02T15:23:33.593Z,14.11
2023-03-02T15:26:35.658Z,14.82
2023-03-02T15:29:37.569Z,14.93
2023-03-02T15:32:39.435Z,15.44
2023-03-02T15:35:41.383Z,15.96
2023-03-02T15:38:43.385Z,15.39
2023-03-02T15:41:45.366Z,15.27
2023-03-02T15:44:47.697Z,13.86
2023-03-02T15:47:49.556Z,14.51
2023-03-02T15:50:57.756Z,14.74
2023-03-02T15:53:59.719Z,13.72
2023-03-02T15:57:01.776Z,13.73
2023-03-02T16:00:05.313Z,15.00
2023-03-02T16:03:07.320Z,14.63
2023-03-02T16:06:09.169Z,15.37
2023-03-02T16:09:11.089Z,15.17
2023-03-02T16:12:13.020Z,15.47
2023-03-02T16:15:14.994Z,15.53
2023-03-02T16:18:17.110Z,15.45
2023-03-02T16:21:19.036Z,15.05
2023-03-02T16:24:21.318Z,14.84
2023-03-02T16:27:23.171Z,14.99
2023-03-02T16:30:25.041Z,14.78
2023-03-02T16:33:26.901Z,14.80
2023-03-02T16:36:28.833Z,14.44
2023-03-02T16:39:30.754Z,14.65
2023-03-02T16:42:32.819Z,14.51
2023-03-02T16:45:34.878Z,14.30
2023-03-02T16:48:36.960Z,14.42
2023-03-02T16:51:39.075Z,14.42
2023-03-02T16:54:40.897Z,14.36
2023-03-02T16:57:42.935Z,13.89
2023-03-02T17:00:44.914Z,14.31
2023-03-02T17:03:47.226Z,13.87
2023-03-02T17:07:00.505Z,14.31
2023-03-02T17:10:03.545Z,14.29
2023-03-02T17:13:05.542Z,13.12
2023-03-02T17:16:07.603Z,13.21
2023-03-02T17:19:09.440Z,13.07
2023-03-02T17:22:11.270Z,12.79
2023-03-02T17:25:13.477Z,12.56
2023-03-02T17:28:15.401Z,12.94
2023-03-02T17:31:17.389Z,13.36
2023-03-02T17:34:19.293Z,12.77
2023-03-02T17:37:21.330Z,12.35
2023-03-02T17:40:23.235Z,12.17
2023-03-02T17:43:25.207Z,12.07
2023-03-02T17:46:27.711Z,12.04
2023-03-02T17:49:30.448Z,12.01
2023-03-02T17:52:32.373Z,12.54
2023-03-02T17:55:34.702Z,12.39
2023-03-02T17:58:44.661Z,12.14
2023-03-02T18:01:47.305Z,11.98
2023-03-02T18:04:49.338Z,12.33
2023-03-02T18:07:52.838Z,12.09
2023-03-02T18:10:54.730Z,11.97
2023-03-02T18:13:56.694Z,11.84
2023-03-02T18:16:58.568Z,11.58
2023-03-02T18:20:00.604Z,11.55
2023-03-02T18:23:02.504Z,11.29
2023-03-02T18:26:04.487Z,11.42
2023-03-02T18:29:06.440Z,11.08
2023-03-02T18:32:09.236Z,10.61
2023-03-02T18:35:11.481Z,10.44
2023-03-02T18:38:13.313Z,10.40
2023-03-02T18:41:15.270Z,10.22
2023-03-02T18:44:17.821Z,10.23
2023-03-02T18:47:19.675Z,10.49
2023-03-02T18:50:21.957Z,10.81
2023-03-02T18:53:23.841Z,10.44
2023-03-02T18:56:25.817Z,10.92
2023-03-02T18:59:28.075Z,11.00
2023-03-02T19:02:29.993Z,10.93
2023-03-02T19:05:31.871Z,11.17
2023-03-02T19:08:35.414Z,11.26
2023-03-02T19:11:37.401Z,11.15
2023-03-02T19:14:39.739Z,10.94
2023-03-02T19:17:42.657Z,10.68
2023-03-02T19:20:48.430Z,10.53
2023-03-02T19:23:50.330Z,10.41
2023-03-02T19:26:52.484Z,10.34
2023-03-02T19:29:54.546Z,10.23
2023-03-02T19:32:56.442Z,10.22
2023-03-02T19:35:58.349Z,10.35
2023-03-02T19:39:00.393Z,10.54
2023-03-02T19:42:02.377Z,10.70
2023-03-02T19:45:04.619Z,10.64
2023-03-02T19:48:06.779Z,10.73
2023-03-02T19:51:09.325Z,10.58
2023-03-02T19:54:11.128Z,10.32
2023-03-02T19:57:13.126Z,10.29
2023-03-02T20:00:15.666Z,10.54
2023-03-02T20:03:17.571Z,11.20
2023-03-02T20:06:20.325Z,10.25
2023-03-02T20:09:24.210Z,10.75
2023-03-02T20:12:26.649Z,11.28
2023-03-02T20:15:28.658Z,11.01
2023-03-02T20:18:30.730Z,10.50
2023-03-02T20:21:32.828Z,11.34
2023-03-02T20:24:34.696Z,11.25
2023-03-02T20:27:36.521Z,10.99
2023-03-02T20:30:40.142Z,11.16
2023-03-02T20:33:43.653Z,10.99
2023-03-02T20:36:45.870Z,10.73
2023-03-02T20:39:49.596Z,10.48
2023-03-02T20:42:51.651Z,10.44
2023-03-02T20:45:54.204Z,10.54
2023-03-02T20:48:56.351Z,10.52
2023-03-02T20:51:59.313Z,10.33
2023-03-02T20:55:01.827Z,10.28
2023-03-02T20:58:05.471Z,9.87
2023-03-02T21:01:07.759Z,10.10
2023-03-02T21:04:09.715Z,9.77
2023-03-02T21:07:11.670Z,9.70
2023-03-02T21:10:14.979Z,9.63
2023-03-02T21:13:19.293Z,9.69
2023-03-02T21:16:23.986Z,9.73
2023-03-02T21:19:25.971Z,9.89
2023-03-02T21:22:27.888Z,10.05
2023-03-02T21:25:29.824Z,9.87
2023-03-02T21:28:31.641Z,10.09
2023-03-02T21:31:33.556Z,10.11
2023-03-02T21:34:38.404Z,9.68
2023-03-02T21:37:43.985Z,9.97
2023-03-02T21:40:46.128Z,10.21
2023-03-02T21:43:48.416Z,9.96
2023-03-02T21:46:50.888Z,10.16
2023-03-02T21:49:53.111Z,9.87
2023-03-02T21:52:55.639Z,10.41
2023-03-02T21:55:57.526Z,10.25
2023-03-02T21:58:59.521Z,9.42
2023-03-02T22:02:01.598Z,9.83
2023-03-02T22:05:04.713Z,9.66
2023-03-02T22:08:06.915Z,10.21
2023-03-02T22:11:11.509Z,9.55
2023-03-02T22:14:14.562Z,9.18
2023-03-02T22:17:24.636Z,9.51
2023-03-02T22:20:26.804Z,9.55
2023-03-02T22:23:28.685Z,10.22
2023-03-02T22:26:30.637Z,9.62
2023-03-02T22:29:38.755Z,9.45
2023-03-02T22:32:40.651Z,9.98
2023-03-02T22:35:42.738Z,10.06
2023-03-02T22:38:44.696Z,9.55
2023-03-02T22:41:46.612Z,8.79
2023-03-02T22:45:07.110Z,8.84
2023-03-02T22:48:28.694Z,9.07
2023-03-02T22:51:31.020Z,8.83
2023-03-02T22:54:37.131Z,8.67
2023-03-02T22:57:39.086Z,9.03
2023-03-02T23:00:41.148Z,8.59
2023-03-02T23:03:43.853Z,8.33
2023-03-02T23:06:47.290Z,8.27
2023-03-02T23:09:49.351Z,8.37
2023-03-02T23:12:51.217Z,8.03
2023-03-02T23:15:53.184Z,7.55
2023-03-02T23:18:56.112Z,7.78
2023-03-02T23:21:58.154Z,7.72
2023-03-02T23:25:00.044Z,8.04
2023-03-02T23:28:02.020Z,8.03
2023-03-02T23:31:03.919Z,7.70
2023-03-02T23:34:06.079Z,7.38
2023-03-02T23:37:07.915Z,8.52
2023-03-02T23:40:10.135Z,8.18
2023-03-02T23:43:12.027Z,7.57
2023-03-02T23:46:14.428Z,7.78
2023-03-02T23:49:16.591Z,8.28
2023-03-02T23:52:18.469Z,8.53
2023-03-02T23:55:20.350Z,8.78
2023-03-02T23:58:22.387Z,8.48
